Time;durP1;ratioP1;P1;durP2;ratioP2;P2;SDS_P1;SDS_P2;PMS_P1;PMS_P2;Temp;Humidity;BMP_temperature;BMP_pressure;BME280_temperature;BME280_humidity;BME280_pressure;Samples;Min_cycle;Max_cycle;Signal;HPM_P1;HPM_P2
2021/01/05 00:01:39;;;;;;;12.63;8.67;;;;;;;-0.19;84.90;96112.56;5115435;27;20273;-67
2021/01/05 00:04:05;;;;;;;12.83;9.00;;;;;;;-0.12;84.69;96118.59;5132997;27;20726;-66
2021/01/05 00:06:30;;;;;;;13.97;9.67;;;;;;;-0.10;85.22;96116.63;5128636;27;20282;-66
2021/01/05 00:08:56;;;;;;;17.63;10.73;;;;;;;-0.20;85.46;96126.41;5099142;28;20175;-67
2021/01/05 00:11:21;;;;;;;13.63;9.13;;;;;;;-0.36;86.55;96114.47;5129546;27;20294;-67
2021/01/05 00:13:47;;;;;;;15.70;10.23;;;;;;;-0.35;87.02;96110.13;5114292;27;20206;-67
2021/01/05 00:16:12;;;;;;;16.70;10.60;;;;;;;-0.18;86.05;96114.16;5127853;27;20179;-67
2021/01/05 00:18:38;;;;;;;16.47;10.43;;;;;;;-0.29;86.52;96119.75;5116055;27;20180;-67
2021/01/05 00:21:03;;;;;;;17.37;12.23;;;;;;;-0.37;87.96;96119.81;5100964;27;20168;-67
2021/01/05 00:23:29;;;;;;;17.20;11.47;;;;;;;-0.35;87.97;96112.72;5126096;27;20258;-67
2021/01/05 00:25:55;;;;;;;18.97;12.00;;;;;;;-0.29;87.73;96115.38;5124801;27;20175;-67
2021/01/05 00:28:21;;;;;;;18.80;12.10;;;;;;;-0.45;88.25;96126.59;5119422;27;20179;-67
2021/01/05 00:30:46;;;;;;;19.67;11.57;;;;;;;-0.41;88.73;96121.94;5130331;27;20266;-67
2021/01/05 00:33:11;;;;;;;19.00;12.27;;;;;;;-0.38;88.33;96119.00;5117056;27;20676;-67
2021/01/05 00:35:39;;;;;;;17.77;11.67;;;;;;;-0.37;88.43;96110.31;5124011;27;20175;-67
2021/01/05 00:38:09;;;;;;;16.57;11.50;;;;;;;-0.53;89.09;96124.13;5117180;27;20642;-67
2021/01/05 00:40:35;;;;;;;21.63;12.80;;;;;;;-0.38;88.28;96113.03;5123601;27;20263;-67
2021/01/05 00:43:01;;;;;;;17.33;11.20;;;;;;;-0.45;89.02;96121.47;5126540;27;21196;-67
2021/01/05 00:45:31;;;;;;;19.57;12.73;;;;;;;-0.42;89.25;96126.28;5128778;27;20176;-67
2021/01/05 00:47:58;;;;;;;19.10;11.77;;;;;;;-0.31;88.66;96119.91;5118693;27;20195;-67
2021/01/05 00:50:24;;;;;;;17.80;11.17;;;;;;;-0.37;88.73;96130.09;5101204;28;20297;-67
2021/01/05 00:52:50;;;;;;;20.07;12.33;;;;;;;-0.38;88.57;96129.28;5120293;27;20231;-67
2021/01/05 00:55:16;;;;;;;17.57;11.73;;;;;;;-0.48;89.14;96134.69;5093653;28;20171;-67
2021/01/05 00:57:43;;;;;;;19.70;12.57;;;;;;;-0.35;89.31;96130.72;5120539;27;20183;-67
2021/01/05 01:00:13;;;;;;;19.67;13.03;;;;;;;-0.38;89.57;96129.28;5128655;27;20182;-67
2021/01/05 01:02:39;;;;;;;20.33;12.83;;;;;;;-0.37;89.81;96130.09;5087622;28;20759;-67
2021/01/05 01:05:05;;;;;;;22.70;13.03;;;;;;;-0.30;90.04;96144.69;5128660;27;20232;-68
2021/01/05 01:07:31;;;;;;;19.00;12.30;;;;;;;-0.24;89.76;96133.69;5126521;27;20179;-68
2021/01/05 01:09:56;;;;;;;21.00;12.90;;;;;;;-0.37;89.84;96137.81;5128000;27;20175;-68
2021/01/05 01:12:23;;;;;;;19.27;12.53;;;;;;;-0.30;90.30;96134.38;5116741;27;20170;-69
2021/01/05 01:14:50;;;;;;;20.00;12.40;;;;;;;-0.31;89.87;96127.63;5117405;27;20202;-68
2021/01/05 01:17:19;;;;;;;18.47;11.73;;;;;;;-0.32;90.10;96127.78;5122846;27;20171;-68
2021/01/05 01:19:44;;;;;;;23.23;12.70;;;;;;;-0.36;90.40;96139.41;5127804;27;20171;-68
2021/01/05 01:22:10;;;;;;;21.63;13.20;;;;;;;-0.26;90.25;96132.25;5127457;27;20278;-68
2021/01/05 01:24:36;;;;;;;23.53;13.50;;;;;;;-0.33;90.14;96134.72;5125793;27;20710;-68
2021/01/05 01:27:01;;;;;;;21.70;12.97;;;;;;;-0.27;90.11;96135.78;5132699;27;20175;-68
2021/01/05 01:29:27;;;;;;;20.00;12.53;;;;;;;-0.39;90.78;96140.56;5095959;28;20222;-68
2021/01/05 01:31:54;;;;;;;20.17;12.40;;;;;;;-0.40;91.28;96140.75;5128068;27;20206;-68
2021/01/05 01:34:22;;;;;;;20.27;13.13;;;;;;;-0.20;89.81;96134.13;5125971;27;20214;-70
2021/01/05 01:36:59;;;;;;;18.83;12.60;;;;;;;-0.22;90.53;96136.06;5132800;27;20190;-68
2021/01/05 01:39:25;;;;;;;19.33;12.90;;;;;;;-0.20;90.17;96128.97;5131412;27;20167;-69
2021/01/05 01:41:52;;;;;;;23.00;13.57;;;;;;;-0.46;90.87;96132.75;5129727;27;20203;-68
2021/01/05 01:44:23;;;;;;;22.77;13.70;;;;;;;-0.34;90.60;96127.19;5119452;28;20258;-68
2021/01/05 01:46:52;;;;;;;22.00;13.37;;;;;;;-0.34;90.76;96137.47;5123654;28;20667;-68
2021/01/05 01:49:18;;;;;;;20.93;12.13;;;;;;;-0.45;91.20;96138.72;5117843;28;20188;-68
2021/01/05 01:51:44;;;;;;;21.00;12.97;;;;;;;-0.40;91.67;96138.97;5129926;28;20595;-68
2021/01/05 01:54:27;;;;;;;18.17;12.40;;;;;;;-0.38;91.37;96129.28;5124491;27;20295;-68
2021/01/05 01:57:20;;;;;;;20.20;13.37;;;;;;;-0.35;90.91;96133.31;5130272;27;20197;-69
2021/01/05 02:00:05;;;;;;;18.20;12.13;;;;;;;-0.31;91.12;96140.50;5110407;27;20179;-68
2021/01/05 02:02:59;;;;;;;18.97;12.80;;;;;;;-0.30;90.84;96142.09;5146151;27;20237;-68
2021/01/05 02:05:35;;;;;;;18.93;12.23;;;;;;;-0.15;90.80;96135.19;5125000;27;20259;-69
2021/01/05 02:08:11;;;;;;;17.23;11.37;;;;;;;0.07;89.94;96135.28;5156259;27;20595;-68
2021/01/05 02:10:51;;;;;;;17.87;11.47;;;;;;;0.14;88.38;96133.63;5150955;27;20173;-68
2021/01/05 02:13:38;;;;;;;17.70;10.53;;;;;;;0.08;88.40;96124.81;5141333;27;20203;-68
2021/01/05 02:16:11;;;;;;;18.43;11.77;;;;;;;-0.02;88.22;96125.09;5124525;27;20190;-68
2021/01/05 02:18:42;;;;;;;18.47;11.27;;;;;;;0.21;88.09;96125.00;5157272;27;20178;-68
2021/01/05 02:21:16;;;;;;;18.20;11.57;;;;;;;0.25;87.91;96130.59;5151096;27;20198;-69
2021/01/05 02:24:04;;;;;;;17.67;11.43;;;;;;;0.42;86.66;96126.84;5139308;27;20787;-68
2021/01/05 02:26:41;;;;;;;17.80;11.57;;;;;;;0.19;86.80;96126.94;5147961;27;20175;-68
2021/01/05 02:29:15;;;;;;;19.00;11.70;;;;;;;0.14;87.44;96120.72;5151723;27;20697;-68
2021/01/05 02:32:08;;;;;;;19.17;11.20;;;;;;;0.04;88.28;96112.47;5155453;27;20175;-69
2021/01/05 02:35:30;;;;;;;14.83;10.50;;;;;;;0.09;88.48;96116.13;5144608;27;20207;-68
2021/01/05 02:38:35;;;;;;;17.80;11.67;;;;;;;0.18;87.72;96119.41;5126723;27;20228;-69
2021/01/05 02:41:06;;;;;;;19.57;11.47;;;;;;;0.27;87.41;96113.19;5155791;27;20167;-68
2021/01/05 02:44:09;;;;;;;20.63;11.83;;;;;;;0.31;86.78;96117.00;5136586;27;20684;-68
2021/01/05 02:46:46;;;;;;;19.53;12.20;;;;;;;0.18;87.13;96117.63;5146689;27;20169;-68
2021/01/05 02:49:47;;;;;;;20.27;12.03;;;;;;;0.17;87.53;96110.88;5140412;27;20524;-68
2021/01/05 02:52:31;;;;;;;17.00;11.73;;;;;;;-0.01;88.01;96110.44;5137373;27;20175;-68
2021/01/05 02:55:24;;;;;;;18.90;12.23;;;;;;;0.14;87.79;96106.09;5140236;27;20305;-68
2021/01/05 02:58:05;;;;;;;21.20;12.77;;;;;;;-0.03;89.01;96107.22;5151032;27;20606;-68
2021/01/05 03:03:19;;;;;;;18.43;12.00;;;;;;;-0.13;89.58;96101.56;5092002;27;20228;-68
2021/01/05 03:06:08;;;;;;;20.90;12.33;;;;;;;0.00;89.22;96099.94;5086810;28;20180;-69
2021/01/05 03:08:38;;;;;;;20.07;12.37;;;;;;;0.09;89.19;96099.88;5094072;28;20259;-69
2021/01/05 03:11:11;;;;;;;22.40;13.50;;;;;;;0.02;88.93;96101.53;5094757;28;20267;-68
2021/01/05 03:13:51;;;;;;;21.00;12.77;;;;;;;0.03;89.43;96106.53;5093886;28;20279;-69
2021/01/05 03:16:32;;;;;;;21.60;13.73;;;;;;;0.05;89.01;96106.34;5094722;28;20173;-69
2021/01/05 03:19:09;;;;;;;21.17;12.73;;;;;;;0.16;89.15;96103.34;5094592;28;20176;-68
2021/01/05 03:21:51;;;;;;;19.70;12.60;;;;;;;0.20;88.59;96104.56;5093447;28;20288;-68
2021/01/05 03:24:17;;;;;;;23.17;13.80;;;;;;;0.26;88.39;96096.13;5094317;28;20597;-67
2021/01/05 03:26:47;;;;;;;22.43;13.30;;;;;;;0.26;88.30;96109.81;5093427;28;20866;-67
2021/01/05 03:29:15;;;;;;;22.67;13.63;;;;;;;0.33;87.91;96109.91;5094258;28;20252;-68
2021/01/05 03:31:49;;;;;;;20.20;12.80;;;;;;;0.40;88.11;96116.72;5093906;28;20176;-67
2021/01/05 03:34:15;;;;;;;23.20;13.07;;;;;;;0.40;87.58;96115.91;5094370;28;20629;-67
2021/01/05 03:36:41;;;;;;;22.47;13.40;;;;;;;0.53;87.49;96105.78;5093876;28;20201;-68
2021/01/05 03:39:09;;;;;;;21.50;13.30;;;;;;;0.47;87.16;96108.25;5094151;28;20219;-67
2021/01/05 03:41:35;;;;;;;22.60;13.07;;;;;;;0.46;87.98;96110.03;5092394;28;21768;-67
2021/01/05 03:44:00;;;;;;;22.43;13.93;;;;;;;0.50;87.62;96113.06;5093706;28;20206;-67
2021/01/05 03:46:28;;;;;;;22.33;13.17;;;;;;;0.52;87.99;96108.53;5093117;28;20169;-69
2021/01/05 03:48:55;;;;;;;23.50;13.67;;;;;;;0.37;88.31;96114.50;5094040;28;20196;-67
2021/01/05 03:51:20;;;;;;;23.30;13.43;;;;;;;0.40;88.74;96113.34;5093895;28;20191;-68
2021/01/05 03:53:46;;;;;;;24.03;13.53;;;;;;;0.39;88.43;96109.19;5092384;28;20775;-69
2021/01/05 03:56:12;;;;;;;23.13;13.47;;;;;;;0.29;88.70;96109.44;5093377;28;20181;-67
2021/01/05 03:58:37;;;;;;;22.50;13.97;;;;;;;0.26;89.30;96111.59;5091332;28;20193;-69
2021/01/05 04:01:03;;;;;;;25.63;14.83;;;;;;;0.32;88.77;96108.28;5099150;27;20264;-67
2021/01/05 04:03:29;;;;;;;26.37;15.67;;;;;;;0.39;89.21;96114.34;5125967;27;20204;-67
2021/01/05 04:05:55;;;;;;;24.30;14.70;;;;;;;0.51;89.10;96112.06;5124887;27;20179;-67
2021/01/05 04:08:21;;;;;;;27.23;16.20;;;;;;;0.57;88.55;96112.16;5132349;27;20183;-68
2021/01/05 04:10:47;;;;;;;24.43;14.37;;;;;;;0.37;89.65;96114.50;5116430;27;20495;-69
2021/01/05 04:13:12;;;;;;;24.77;15.00;;;;;;;0.36;89.66;96115.47;5134532;27;20195;-67
2021/01/05 04:15:38;;;;;;;25.93;15.23;;;;;;;0.46;89.29;96120.34;5125183;27;20204;-67
2021/01/05 04:18:03;;;;;;;27.37;15.20;;;;;;;0.52;88.69;96122.22;5124853;27;20770;-68
2021/01/05 04:20:30;;;;;;;26.13;15.53;;;;;;;0.50;88.85;96121.63;5117697;27;20645;-68
2021/01/05 04:22:57;;;;;;;24.83;15.33;;;;;;;0.47;89.08;96113.41;5129680;27;20203;-68
2021/01/05 04:25:24;;;;;;;26.77;15.27;;;;;;;0.36;89.61;96112.91;5120285;27;20171;-67
2021/01/05 04:27:50;;;;;;;26.30;15.60;;;;;;;0.52;89.46;96109.31;5124216;27;20200;-67
2021/01/05 04:30:23;;;;;;;28.10;16.40;;;;;;;0.43;89.84;96104.47;5127134;27;20190;-68
2021/01/05 04:32:49;;;;;;;27.80;16.17;;;;;;;0.62;89.05;96107.25;5115769;27;20664;-67
2021/01/05 04:35:18;;;;;;;31.50;17.00;;;;;;;0.48;89.34;96109.88;5129227;27;20259;-67
2021/01/05 04:37:43;;;;;;;29.43;16.23;;;;;;;0.28;90.38;96112.22;5102363;27;21209;-67
2021/01/05 04:40:34;;;;;;;30.80;17.10;;;;;;;0.30;90.45;96111.03;5121778;27;20263;-66
2021/01/05 04:43:31;;;;;;;28.27;16.23;;;;;;;0.17;91.66;96110.88;5130873;27;20203;-66
2021/01/05 04:46:47;;;;;;;27.23;15.40;;;;;;;0.29;91.54;96116.38;5126354;27;20207;-66
2021/01/05 04:49:12;;;;;;;32.53;17.43;;;;;;;0.28;91.56;96115.56;5083983;27;20241;-66
2021/01/05 04:51:46;;;;;;;30.87;17.80;;;;;;;0.12;92.38;96118.31;5115254;27;20175;-66
2021/01/05 04:54:33;;;;;;;27.87;16.37;;;;;;;-0.09;93.81;96124.19;5123894;27;20203;-66
2021/01/05 04:57:27;;;;;;;30.93;18.13;;;;;;;-0.19;94.65;96122.84;5121370;27;20183;-66
2021/01/05 05:00:04;;;;;;;28.20;16.40;;;;;;;0.06;93.93;96131.91;5129145;27;20278;-67
2021/01/05 05:02:29;;;;;;;28.97;16.70;;;;;;;-0.02;94.24;96124.28;5111100;27;20223;-66
2021/01/05 05:05:16;;;;;;;30.97;17.97;;;;;;;0.14;95.08;96120.72;5122443;27;20203;-67
2021/01/05 05:07:57;;;;;;;27.83;16.30;;;;;;;0.26;93.67;96132.19;5129356;27;20191;-66
2021/01/05 05:10:30;;;;;;;30.07;16.80;;;;;;;0.28;93.62;96135.41;5119213;27;20175;-66
2021/01/05 05:13:11;;;;;;;31.03;17.23;;;;;;;0.31;93.29;96127.31;5122585;27;20626;-66
2021/01/05 05:15:59;;;;;;;27.47;16.10;;;;;;;0.25;93.99;96126.25;5127467;27;20232;-66
2021/01/05 05:18:24;;;;;;;29.37;16.07;;;;;;;0.35;94.08;96121.59;5123713;27;20254;-66
2021/01/05 05:21:14;;;;;;;25.63;15.83;;;;;;;0.40;93.16;96119.28;5121509;27;20199;-66
2021/01/05 05:23:53;;;;;;;24.70;14.53;;;;;;;0.36;93.11;96138.69;5119888;27;20218;-66
2021/01/05 05:27:16;;;;;;;28.17;16.27;;;;;;;0.43;92.77;96143.91;5121523;27;20179;-66
2021/01/05 05:29:55;;;;;;;26.13;15.97;;;;;;;0.38;93.24;96141.88;5052652;28;20195;-66
2021/01/05 05:32:39;;;;;;;27.33;16.03;;;;;;;0.53;92.62;96144.44;5060867;28;20288;-66
2021/01/05 05:35:04;;;;;;;24.30;15.17;;;;;;;0.48;93.06;96139.03;5053570;28;20210;-66
2021/01/05 05:37:56;;;;;;;31.13;16.80;;;;;;;0.57;92.78;96145.66;5067414;28;20269;-66
2021/01/05 05:40:59;;;;;;;26.40;15.33;;;;;;;0.62;93.43;96152.84;5060754;28;20608;-66
2021/01/05 05:43:48;;;;;;;25.47;15.63;;;;;;;0.64;92.67;96146.56;4957840;28;20212;-66
2021/01/05 05:46:26;;;;;;;28.80;15.20;;;;;;;0.84;92.66;96154.50;5057706;28;20660;-67
2021/01/05 05:49:00;;;;;;;26.80;15.97;;;;;;;0.87;91.84;96150.78;5057843;28;20182;-66
2021/01/05 05:51:34;;;;;;;29.40;16.23;;;;;;;0.91;91.43;96152.81;5057248;28;20181;-67
2021/01/05 05:54:21;;;;;;;25.27;15.90;;;;;;;0.86;92.06;96160.28;5057469;28;20291;-67
2021/01/05 05:56:59;;;;;;;26.27;15.33;;;;;;;0.92;92.31;96163.94;5053934;28;20184;-67
2021/01/05 05:59:37;;;;;;;27.70;15.67;;;;;;;0.56;93.20;96161.34;5061931;28;20190;-67
2021/01/05 06:02:02;;;;;;;26.27;15.23;;;;;;;0.63;93.13;96169.94;5100240;28;20780;-65
2021/01/05 06:04:32;;;;;;;26.97;16.77;;;;;;;0.61;92.45;96175.28;5100471;28;20311;-66
2021/01/05 06:06:58;;;;;;;27.40;15.60;;;;;;;0.68;92.48;96175.34;5106996;28;20194;-66
2021/01/05 06:09:23;;;;;;;28.77;16.23;;;;;;;0.62;93.06;96183.78;5094910;28;20627;-66
2021/01/05 06:11:53;;;;;;;31.87;16.57;;;;;;;0.66;93.20;96182.47;5100982;28;20161;-66
2021/01/05 06:14:19;;;;;;;25.53;16.57;;;;;;;0.76;92.37;96176.06;5101841;28;20211;-68
2021/01/05 06:16:44;;;;;;;28.80;16.90;;;;;;;0.76;92.63;96167.53;5093467;28;20168;-67
2021/01/05 06:19:09;;;;;;;26.23;15.87;;;;;;;0.83;92.78;96178.72;5091460;28;20281;-67
2021/01/05 06:21:35;;;;;;;26.33;15.70;;;;;;;0.72;93.43;96169.69;5091209;28;20176;-64
2021/01/05 06:24:01;;;;;;;25.80;15.97;;;;;;;0.80;92.66;96179.88;5092395;28;20204;-66
2021/01/05 06:26:26;;;;;;;25.97;15.87;;;;;;;0.88;92.17;96175.59;5100573;28;20187;-66
2021/01/05 06:28:51;;;;;;;24.43;15.60;;;;;;;0.88;92.88;96184.13;5098363;28;20314;-67
2021/01/05 06:31:17;;;;;;;26.43;16.60;;;;;;;0.93;92.66;96191.34;5107685;28;20183;-65
2021/01/05 06:33:43;;;;;;;23.63;15.03;;;;;;;0.76;93.50;96191.53;5095271;28;20199;-66
2021/01/05 06:36:09;;;;;;;25.43;15.57;;;;;;;0.93;92.67;96199.88;5103454;28;20627;-65
2021/01/05 06:38:34;;;;;;;24.20;15.10;;;;;;;1.11;91.94;96200.28;5102059;28;20195;-65
2021/01/05 06:41:00;;;;;;;25.20;16.13;;;;;;;1.20;91.46;96206.94;5096994;28;20172;-65
2021/01/05 06:43:25;;;;;;;24.23;14.53;;;;;;;1.08;91.79;96195.47;5096547;28;20220;-65
2021/01/05 06:45:51;;;;;;;22.57;14.53;;;;;;;1.22;91.96;96194.66;5108918;28;20176;-65
2021/01/05 06:48:16;;;;;;;22.60;15.03;;;;;;;1.37;91.08;96192.00;5097534;28;20186;-65
2021/01/05 06:50:42;;;;;;;25.83;15.83;;;;;;;1.29;91.61;96193.88;5110837;28;20175;-65
2021/01/05 06:53:07;;;;;;;22.67;14.67;;;;;;;1.36;90.74;96199.94;5081999;28;20189;-65
2021/01/05 06:55:32;;;;;;;22.53;15.13;;;;;;;1.37;90.25;96193.78;5100893;28;20179;-66
2021/01/05 06:57:58;;;;;;;23.90;15.40;;;;;;;1.38;91.02;96195.38;5106689;28;20626;-65
2021/01/05 07:00:28;;;;;;;24.87;15.23;;;;;;;1.29;90.91;96192.13;5099862;28;20188;-65
2021/01/05 07:02:55;;;;;;;24.53;15.33;;;;;;;1.32;90.68;96194.34;5116233;27;20255;-65
2021/01/05 07:05:21;;;;;;;24.70;15.37;;;;;;;1.28;90.77;96193.13;5131891;27;20651;-65
2021/01/05 07:07:47;;;;;;;23.37;14.87;;;;;;;1.17;91.59;96189.22;5124185;27;20655;-65
2021/01/05 07:10:15;;;;;;;24.00;15.53;;;;;;;1.23;91.38;96195.41;5114241;27;20247;-65
2021/01/05 07:12:42;;;;;;;22.80;14.73;;;;;;;1.24;91.63;96203.00;5114452;27;20219;-66
2021/01/05 07:15:09;;;;;;;22.63;14.40;;;;;;;1.22;91.91;96201.59;5129150;27;20220;-63
2021/01/05 07:17:35;;;;;;;21.83;13.97;;;;;;;1.16;91.68;96200.53;5123116;27;20705;-61
2021/01/05 07:20:02;;;;;;;23.13;15.37;;;;;;;1.23;91.29;96196.22;5124932;27;20259;-60
2021/01/05 07:22:28;;;;;;;22.63;13.93;;;;;;;1.28;91.77;96205.22;5128901;27;20192;-61
2021/01/05 07:24:53;;;;;;;22.73;15.23;;;;;;;1.26;91.58;96210.56;5116701;27;20208;-61
2021/01/05 07:27:18;;;;;;;23.63;15.40;;;;;;;1.22;92.22;96204.97;5129923;27;20530;-63
2021/01/05 07:29:44;;;;;;;25.33;15.30;;;;;;;1.16;91.37;96213.44;5127370;27;20205;-58
2021/01/05 07:32:09;;;;;;;24.90;14.63;;;;;;;1.10;92.13;96205.63;5118095;27;20184;-62
2021/01/05 07:34:38;;;;;;;24.27;14.20;;;;;;;1.26;91.58;96210.56;5120511;27;20198;-62
2021/01/05 07:37:08;;;;;;;24.90;15.43;;;;;;;1.37;91.60;96212.66;5118324;27;20176;-62
2021/01/05 07:39:34;;;;;;;23.40;14.57;;;;;;;1.25;92.12;96211.53;5114108;27;20273;-64
2021/01/05 07:42:11;;;;;;;23.43;14.87;;;;;;;1.14;92.24;96217.97;5114147;27;20680;-65
2021/01/05 07:44:38;;;;;;;23.87;14.13;;;;;;;1.02;93.04;96216.84;5124874;27;20700;-62
2021/01/05 07:47:03;;;;;;;26.93;16.30;;;;;;;1.09;92.69;96217.72;5119674;27;20179;-63
2021/01/05 07:49:28;;;;;;;26.77;16.07;;;;;;;1.08;92.87;96215.31;5130848;27;20183;-63
2021/01/05 07:51:54;;;;;;;26.87;15.60;;;;;;;1.09;92.55;96215.13;5117752;27;20198;-62
2021/01/05 07:54:19;;;;;;;25.30;16.00;;;;;;;1.09;92.93;96217.72;5125522;27;20239;-64
2021/01/05 07:56:45;;;;;;;27.57;16.20;;;;;;;1.02;93.16;96216.84;5124064;27;20224;-62
2021/01/05 07:59:11;;;;;;;25.97;16.27;;;;;;;0.94;94.27;96213.56;5123537;27;20192;-60
2021/01/05 08:01:37;;;;;;;24.53;15.07;;;;;;;0.83;94.73;96222.56;5107609;27;20228;-60
2021/01/05 08:04:02;;;;;;;24.93;15.90;;;;;;;0.77;95.02;96223.28;5095148;28;20714;-58
2021/01/05 08:06:28;;;;;;;26.30;15.73;;;;;;;0.50;96.57;96222.16;5107208;28;20164;-59
2021/01/05 08:08:53;;;;;;;26.50;15.40;;;;;;;0.49;97.91;96217.16;5098683;28;20873;-60
2021/01/05 08:11:18;;;;;;;23.23;14.47;;;;;;;0.49;97.24;96219.75;5099039;28;20168;-59
2021/01/05 08:13:44;;;;;;;29.63;16.33;;;;;;;0.63;96.95;96214.56;5104867;28;20239;-61
2021/01/05 08:16:13;;;;;;;25.33;16.17;;;;;;;0.67;96.89;96220.97;5098317;28;20173;-60
2021/01/05 08:18:38;;;;;;;22.47;15.33;;;;;;;0.66;97.44;96223.75;5100456;28;20165;-61
2021/01/05 08:21:08;;;;;;;20.97;13.57;;;;;;;0.55;97.87;96216.44;5106583;28;20313;-59
2021/01/05 08:23:33;;;;;;;21.93;14.60;;;;;;;0.63;97.57;96218.91;5096369;28;20290;-57
2021/01/05 08:25:59;;;;;;;28.83;16.47;;;;;;;0.62;97.56;96222.47;5104866;28;20259;-59
2021/01/05 08:28:25;;;;;;;21.93;14.43;;;;;;;0.64;98.02;96221.34;5104884;28;20196;-57
2021/01/05 08:30:50;;;;;;;23.73;14.37;;;;;;;0.71;97.91;96218.84;5101178;28;20850;-56
2021/01/05 08:33:16;;;;;;;20.20;14.70;;;;;;;0.74;97.72;96216.69;5098708;28;20188;-60
2021/01/05 08:35:45;;;;;;;24.60;14.73;;;;;;;0.77;97.62;96215.56;5104794;28;20165;-59
2021/01/05 08:38:10;;;;;;;24.87;14.47;;;;;;;0.81;97.34;96217.59;5095139;28;20176;-57
2021/01/05 08:40:36;;;;;;;23.97;13.87;;;;;;;0.71;98.11;96224.00;5096841;28;20164;-57
2021/01/05 08:43:05;;;;;;;23.90;14.17;;;;;;;0.73;97.72;96214.28;5085603;28;20241;-60
2021/01/05 08:45:40;;;;;;;20.80;12.87;;;;;;;0.76;97.95;96222.50;5107127;28;20169;-60
2021/01/05 08:48:06;;;;;;;20.33;14.17;;;;;;;0.70;98.19;96219.81;5103207;28;20270;-59
2021/01/05 08:50:37;;;;;;;21.53;13.77;;;;;;;0.68;98.07;96211.44;5097981;28;20639;-60
2021/01/05 08:53:08;;;;;;;21.83;14.30;;;;;;;0.84;97.40;96216.41;5087413;28;20218;-63
2021/01/05 08:55:39;;;;;;;22.93;14.70;;;;;;;0.76;97.59;96214.75;5098512;28;20195;-59
2021/01/05 08:58:05;;;;;;;22.50;14.10;;;;;;;0.56;98.46;96215.47;5111674;28;20224;-61
2021/01/05 09:00:56;;;;;;;26.27;15.17;;;;;;;0.55;99.22;96221.59;5096966;28;20251;-60
2021/01/05 09:03:21;;;;;;;22.93;14.23;;;;;;;0.58;98.40;96216.09;5114026;27;20219;-60
2021/01/05 09:05:48;;;;;;;19.90;13.97;;;;;;;0.59;98.89;96215.91;5127953;27;20641;-60
2021/01/05 09:08:14;;;;;;;20.23;13.33;;;;;;;0.58;99.29;96219.47;5113868;27;20179;-58
2021/01/05 09:10:39;;;;;;;21.37;13.50;;;;;;;0.57;99.81;96219.63;5121252;27;20652;-61
2021/01/05 09:13:05;;;;;;;20.40;13.67;;;;;;;0.59;99.07;96228.00;5131481;27;20199;-57
2021/01/05 09:15:34;;;;;;;21.13;13.27;;;;;;;0.60;99.16;96220.09;5119069;27;20242;-60
2021/01/05 09:18:02;;;;;;;21.67;14.20;;;;;;;0.77;99.32;96223.28;5130144;27;20171;-57
2021/01/05 09:20:27;;;;;;;20.97;14.50;;;;;;;0.81;98.85;96225.31;5116965;27;20171;-56
2021/01/05 09:22:54;;;;;;;20.57;14.47;;;;;;;0.75;98.48;96225.22;5130552;27;20809;-60
2021/01/05 09:25:20;;;;;;;21.67;14.80;;;;;;;0.78;98.02;96228.25;5120966;27;20175;-59
2021/01/05 09:27:46;;;;;;;22.17;14.13;;;;;;;0.75;98.99;96225.22;5126885;27;20167;-60
2021/01/05 09:30:16;;;;;;;20.83;13.87;;;;;;;0.90;98.77;96231.16;5115222;27;20225;-61
2021/01/05 09:32:42;;;;;;;20.10;14.13;;;;;;;0.88;98.68;96225.41;5125572;27;20176;-61
2021/01/05 09:35:08;;;;;;;22.43;14.40;;;;;;;0.93;98.18;96230.81;5121642;27;20203;-57
2021/01/05 09:37:34;;;;;;;20.23;13.90;;;;;;;0.83;97.51;96225.97;5118555;27;20184;-59
2021/01/05 09:39:59;;;;;;;20.37;13.83;;;;;;;0.82;98.45;96220.97;5128655;27;20320;-62
2021/01/05 09:42:28;;;;;;;23.67;14.07;;;;;;;0.99;98.53;96230.09;5115337;27;20553;-59
2021/01/05 09:44:53;;;;;;;23.27;14.33;;;;;;;0.99;98.35;96224.94;5123718;27;20771;-56
2021/01/05 09:47:20;;;;;;;24.60;14.47;;;;;;;0.91;97.63;96229.41;5122231;27;20224;-58
2021/01/05 09:49:49;;;;;;;22.70;14.47;;;;;;;0.95;97.39;96228.84;5116412;27;20578;-64
2021/01/05 09:52:14;;;;;;;22.07;14.40;;;;;;;1.00;97.55;96231.72;5118631;27;20683;-61
2021/01/05 09:54:44;;;;;;;20.83;13.77;;;;;;;0.94;98.08;96236.78;5114221;28;20214;-68
2021/01/05 09:57:09;;;;;;;21.17;12.50;;;;;;;0.95;98.32;96238.41;5114446;28;20254;-60
2021/01/05 09:59:35;;;;;;;21.27;13.13;;;;;;;0.97;98.32;96241.56;5110880;28;20179;-60
2021/01/05 10:02:03;;;;;;;20.13;13.30;;;;;;;1.03;97.14;96233.13;5122050;27;20223;-62
2021/01/05 10:04:29;;;;;;;21.10;13.53;;;;;;;1.13;97.45;96242.16;5143540;27;20252;-58
2021/01/05 10:06:55;;;;;;;22.63;13.97;;;;;;;1.09;96.84;96237.56;5143329;27;20597;-57
2021/01/05 10:09:20;;;;;;;22.27;13.80;;;;;;;1.18;96.51;96236.47;5137361;27;20167;-61
2021/01/05 10:11:47;;;;;;;26.93;14.07;;;;;;;1.24;97.07;96235.75;5142152;27;20167;-60
2021/01/05 10:14:16;;;;;;;21.50;14.13;;;;;;;1.10;96.78;96239.16;5146567;27;20692;-61
2021/01/05 10:16:42;;;;;;;18.70;13.13;;;;;;;1.02;97.08;96232.31;5143405;27;20171;-60
2021/01/05 10:19:12;;;;;;;20.70;12.87;;;;;;;1.12;97.19;96230.25;5142502;27;20198;-61
2021/01/05 10:21:42;;;;;;;19.70;14.00;;;;;;;0.87;97.70;96223.00;5152728;27;20178;-60
2021/01/05 10:24:10;;;;;;;21.43;14.20;;;;;;;1.09;98.10;96209.97;5150645;27;20263;-61
2021/01/05 10:26:36;;;;;;;20.27;13.80;;;;;;;1.41;96.60;96203.56;5144103;27;20172;-62
2021/01/05 10:29:03;;;;;;;20.50;13.20;;;;;;;1.43;95.06;96205.97;5143630;27;20170;-61
2021/01/05 10:31:55;;;;;;;20.10;13.97;;;;;;;1.41;96.11;96211.31;5144185;27;20179;-60
2021/01/05 10:34:23;;;;;;;19.97;13.20;;;;;;;1.41;96.00;96213.09;5133767;27;20214;-58
2021/01/05 10:36:55;;;;;;;18.13;12.80;;;;;;;1.32;96.64;96204.66;5145522;27;20168;-61
2021/01/05 10:39:22;;;;;;;20.83;13.77;;;;;;;1.44;96.17;96210.16;5147026;27;20171;-61
2021/01/05 10:41:48;;;;;;;21.23;14.13;;;;;;;1.30;95.98;96208.41;5149732;27;20173;-63
2021/01/05 10:44:16;;;;;;;20.37;13.67;;;;;;;1.31;95.33;96210.81;5143780;27;20727;-62
2021/01/05 10:46:42;;;;;;;20.00;14.07;;;;;;;1.40;94.99;96209.69;5141312;27;20664;-60
2021/01/05 10:49:08;;;;;;;21.37;14.23;;;;;;;1.32;95.14;96206.44;5139057;27;20221;-62
2021/01/05 10:51:35;;;;;;;21.67;13.70;;;;;;;1.29;95.81;96207.59;5142717;27;20175;-61
2021/01/05 10:54:04;;;;;;;22.37;14.57;;;;;;;1.41;95.29;96205.34;5136883;27;20282;-62
2021/01/05 10:56:29;;;;;;;22.97;14.33;;;;;;;1.33;96.30;96192.56;5149266;27;20168;-61
2021/01/05 10:58:55;;;;;;;19.47;14.03;;;;;;;1.30;95.92;96191.13;5142721;27;20200;-61
2021/01/05 11:01:20;;;;;;;22.03;14.10;;;;;;;1.36;95.91;96195.56;5132789;27;20220;-62
2021/01/05 11:03:46;;;;;;;19.23;14.00;;;;;;;1.40;95.73;96190.81;5122704;27;20298;-61
2021/01/05 11:06:11;;;;;;;22.10;14.60;;;;;;;1.42;95.90;96196.63;5114058;27;20168;-60
2021/01/05 11:08:37;;;;;;;21.47;13.93;;;;;;;1.35;95.03;96188.00;5117195;27;20183;-60
2021/01/05 11:11:05;;;;;;;20.73;13.90;;;;;;;1.48;95.65;96181.19;5118765;27;20221;-61
2021/01/05 11:13:37;;;;;;;23.87;15.07;;;;;;;1.68;93.77;96174.41;5129758;27;20226;-61
2021/01/05 11:16:03;;;;;;;21.73;14.33;;;;;;;1.70;94.36;96183.75;5114920;27;20203;-61
2021/01/05 11:18:28;;;;;;;21.97;13.97;;;;;;;1.23;96.68;96198.00;5123635;27;20172;-62
2021/01/05 11:20:54;;;;;;;20.30;13.63;;;;;;;1.48;95.66;96183.78;5122518;27;20177;-61
2021/01/05 11:23:19;;;;;;;21.77;14.00;;;;;;;1.39;95.04;96187.47;5125762;27;20697;-62
2021/01/05 11:25:45;;;;;;;22.80;13.97;;;;;;;1.52;95.15;96182.41;5132691;27;20179;-64
2021/01/05 11:28:11;;;;;;;23.50;14.27;;;;;;;1.62;93.90;96179.50;5121751;27;20175;-62
2021/01/05 11:30:36;;;;;;;23.33;15.50;;;;;;;1.58;94.00;96180.88;5116119;27;20654;-60
2021/01/05 11:33:02;;;;;;;22.50;14.37;;;;;;;1.51;93.92;96178.22;5130193;27;20160;-61
2021/01/05 11:35:28;;;;;;;22.63;15.27;;;;;;;1.29;96.37;96180.97;5121767;27;20171;-61
2021/01/05 11:37:53;;;;;;;23.27;15.20;;;;;;;1.29;96.03;96178.41;5122764;27;20218;-61
2021/01/05 11:40:19;;;;;;;24.87;15.20;;;;;;;1.24;96.53;96182.34;5125925;27;20240;-61
2021/01/05 11:42:48;;;;;;;22.90;14.97;;;;;;;1.38;96.10;96172.16;5118422;27;20199;-61